createdAt,value
2023-02-19T00:07:32.860Z,22.20
2023-02-19T00:10:21.425Z,23.30
2023-02-19T00:13:35.604Z,21.08
2023-02-19T00:18:43.836Z,19.63
2023-02-19T00:22:45.339Z,26.50
2023-02-19T00:25:31.288Z,21.08
2023-02-19T00:31:07.701Z,19.70
2023-02-19T00:33:56.558Z,20.70
2023-02-19T00:37:08.416Z,24.95
2023-02-19T00:39:53.996Z,19.33
2023-02-19T00:42:39.814Z,20.00
2023-02-19T00:45:26.486Z,18.25
2023-02-19T00:50:57.911Z,19.93
2023-02-19T01:30:16.301Z,11.65
2023-02-19T01:35:51.339Z,10.80
2023-02-19T01:53:19.296Z,10.68
2023-02-19T01:56:06.810Z,8.97
2023-02-19T02:04:14.470Z,6.85
2023-02-19T02:07:02.563Z,6.80
2023-02-19T02:10:06.596Z,8.15
2023-02-19T02:12:56.456Z,8.00
2023-02-19T02:15:51.889Z,8.05
2023-02-19T02:18:48.403Z,7.78
2023-02-19T02:21:46.174Z,8.40
2023-02-19T02:25:15.500Z,8.02
2023-02-19T02:28:15.792Z,7.93
2023-02-19T02:31:07.138Z,7.70
2023-02-19T02:33:59.634Z,8.15
2023-02-19T02:36:49.895Z,7.57
2023-02-19T02:39:38.477Z,7.22
2023-02-19T02:42:27.187Z,6.72
2023-02-19T02:45:37.648Z,7.70
2023-02-19T02:48:37.018Z,7.30
2023-02-19T02:51:26.359Z,7.18
2023-02-19T02:54:42.579Z,7.82
2023-02-19T02:57:31.223Z,7.60
2023-02-19T03:00:17.105Z,7.07
2023-02-19T03:03:03.833Z,7.25
2023-02-19T03:05:55.750Z,7.07
2023-02-19T03:08:47.338Z,7.78
2023-02-19T03:11:53.370Z,7.95
2023-02-19T03:15:02.613Z,6.63
2023-02-19T03:18:10.868Z,7.13
2023-02-19T03:20:59.221Z,7.15
2023-02-19T03:24:05.256Z,7.13
2023-02-19T03:26:54.012Z,6.63
2023-02-19T03:29:43.573Z,7.00
2023-02-19T03:32:33.991Z,7.28
2023-02-19T03:35:23.134Z,7.28
2023-02-19T03:38:18.541Z,6.70
2023-02-19T03:41:10.789Z,6.47
2023-02-19T03:44:07.740Z,6.57
2023-02-19T03:46:58.651Z,6.88
2023-02-19T03:49:49.177Z,6.47
2023-02-19T03:52:42.036Z,5.88
2023-02-19T03:55:37.226Z,6.20
2023-02-19T03:58:31.993Z,5.95
2023-02-19T04:01:22.283Z,6.80
2023-02-19T04:04:15.645Z,6.03
2023-02-19T04:07:01.218Z,6.78
2023-02-19T04:09:51.961Z,6.65
2023-02-19T04:12:44.269Z,6.18
2023-02-19T04:15:33.547Z,5.90
2023-02-19T04:18:22.716Z,6.03
2023-02-19T04:21:10.741Z,6.20
2023-02-19T04:23:59.398Z,5.93
2023-02-19T04:26:46.004Z,5.82
2023-02-19T04:29:33.234Z,5.65
2023-02-19T04:32:18.956Z,6.50
2023-02-19T04:35:04.588Z,6.35
2023-02-19T04:37:50.044Z,6.50
2023-02-19T04:40:35.881Z,6.95
2023-02-19T04:43:21.768Z,6.95
2023-02-19T04:46:08.723Z,6.80
2023-02-19T04:48:54.339Z,7.28
2023-02-19T04:51:40.504Z,7.28
2023-02-19T04:54:26.488Z,7.45
2023-02-19T04:57:12.257Z,7.05
2023-02-19T04:59:58.086Z,6.88
2023-02-19T05:02:45.017Z,7.63
2023-02-19T05:05:30.360Z,6.95
2023-02-19T05:08:15.972Z,6.95
2023-02-19T05:11:03.895Z,6.95
2023-02-19T05:13:49.884Z,7.32
2023-02-19T05:16:35.651Z,7.22
2023-02-19T05:19:22.789Z,6.72
2023-02-19T05:22:08.491Z,8.40
2023-02-19T05:24:54.027Z,7.32
2023-02-19T05:27:40.301Z,7.07
2023-02-19T05:30:26.039Z,7.13
2023-02-19T05:33:11.784Z,7.60
2023-02-19T05:35:58.531Z,7.28
2023-02-19T05:38:44.113Z,7.07
2023-02-19T05:41:30.574Z,7.45
2023-02-19T05:44:16.227Z,6.80
2023-02-19T05:47:01.776Z,7.18
2023-02-19T05:49:47.476Z,6.70
2023-02-19T05:52:34.871Z,6.68
2023-02-19T05:55:20.372Z,6.20
2023-02-19T05:58:05.905Z,6.32
2023-02-19T06:00:51.874Z,6.25
2023-02-19T06:03:37.896Z,5.80
2023-02-19T06:06:23.918Z,5.88
2023-02-19T06:09:11.453Z,5.57
2023-02-19T06:11:57.401Z,5.53
2023-02-19T06:14:42.952Z,5.47
2023-02-19T06:17:28.562Z,5.60
2023-02-19T06:20:14.553Z,5.22
2023-02-19T06:23:00.161Z,5.20
2023-02-19T06:25:47.249Z,5.70
2023-02-19T06:28:32.664Z,6.05
2023-02-19T06:31:20.021Z,5.68
2023-02-19T06:34:05.935Z,5.43
2023-02-19T06:36:51.752Z,5.50
2023-02-19T06:39:37.592Z,5.03
2023-02-19T06:42:24.716Z,4.95
2023-02-19T06:45:10.170Z,4.93
2023-02-19T06:47:55.953Z,5.05
2023-02-19T06:50:41.395Z,5.68
2023-02-19T06:53:26.852Z,5.85
2023-02-19T06:56:25.093Z,5.20
2023-02-19T06:59:13.919Z,5.45
2023-02-19T07:01:59.870Z,4.97
2023-02-19T07:04:45.677Z,5.18
2023-02-19T07:07:31.571Z,5.38
2023-02-19T07:10:18.039Z,5.20
2023-02-19T07:13:03.728Z,6.10
2023-02-19T07:15:52.263Z,5.57
2023-02-19T07:18:38.320Z,5.15
2023-02-19T07:21:24.569Z,5.65
2023-02-19T07:24:10.779Z,6.32
2023-02-19T07:26:56.320Z,5.43
2023-02-19T07:29:42.372Z,5.88
2023-02-19T07:32:29.538Z,6.32
2023-02-19T07:35:15.057Z,6.38
2023-02-19T07:38:00.841Z,6.28
2023-02-19T07:40:52.025Z,6.97
2023-02-19T07:43:39.242Z,6.85
2023-02-19T07:46:25.514Z,7.55
2023-02-19T07:49:12.644Z,7.57
2023-02-19T07:51:58.531Z,7.57
2023-02-19T07:54:44.022Z,7.40
2023-02-19T07:57:31.213Z,7.35
2023-02-19T08:00:19.099Z,7.35
2023-02-19T08:03:04.909Z,7.28
2023-02-19T08:05:53.815Z,6.90
2023-02-19T08:08:40.100Z,6.88
2023-02-19T08:11:44.602Z,7.38
2023-02-19T08:14:30.423Z,7.25
2023-02-19T08:17:16.155Z,7.10
2023-02-19T08:20:02.046Z,7.30
2023-02-19T08:22:49.258Z,7.43
2023-02-19T08:25:34.796Z,6.80
2023-02-19T08:28:20.681Z,6.70
2023-02-19T08:31:08.324Z,6.13
2023-02-19T08:33:53.816Z,8.18
2023-02-19T08:36:39.796Z,7.65
2023-02-19T08:39:27.158Z,8.75
2023-02-19T08:42:13.178Z,7.40
2023-02-19T08:44:59.160Z,6.35
2023-02-19T08:47:45.152Z,6.43
2023-02-19T08:50:31.281Z,6.85
2023-02-19T08:53:17.187Z,6.28
2023-02-19T08:56:06.722Z,5.63
2023-02-19T08:58:52.410Z,5.18
2023-02-19T09:01:37.951Z,5.78
2023-02-19T09:04:23.906Z,5.25
2023-02-19T09:07:12.314Z,5.30
2023-02-19T09:09:58.679Z,4.65
2023-02-19T09:12:47.304Z,5.72
2023-02-19T09:15:33.650Z,5.22
2023-02-19T09:18:19.651Z,6.03
2023-02-19T09:21:06.475Z,5.95
2023-02-19T09:23:52.250Z,6.55
2023-02-19T09:26:38.782Z,6.13
2023-02-19T10:08:34.780Z,5.85
2023-02-19T10:11:20.453Z,5.38
2023-02-19T10:14:12.778Z,5.30
2023-02-19T10:17:01.168Z,5.35
2023-02-19T10:19:48.366Z,5.10
2023-02-19T10:22:38.006Z,5.45
2023-02-19T10:25:23.617Z,5.10
2023-02-19T10:28:14.271Z,5.00
2023-02-19T10:31:01.767Z,4.13
2023-02-19T10:33:52.732Z,3.15
2023-02-19T10:36:41.810Z,3.20
2023-02-19T10:42:23.355Z,3.15
2023-02-19T10:45:18.792Z,2.70
2023-02-19T10:48:06.026Z,3.22
2023-02-19T10:50:58.045Z,3.50
2023-02-19T10:53:47.707Z,3.20
2023-02-19T10:56:34.021Z,3.08
2023-02-19T10:59:25.385Z,3.08
2023-02-19T11:02:18.057Z,2.80
2023-02-19T11:05:21.862Z,3.15
2023-02-19T11:08:22.338Z,2.40
2023-02-19T11:11:09.708Z,2.95
2023-02-19T11:13:57.784Z,2.70
2023-02-19T11:16:46.428Z,2.75
2023-02-19T11:19:36.850Z,3.08
2023-02-19T11:22:31.490Z,2.80
2023-02-19T11:25:25.585Z,3.10
2023-02-19T11:28:30.420Z,2.67
2023-02-19T11:31:24.572Z,2.03
2023-02-19T11:34:29.821Z,1.77
2023-02-19T11:37:17.329Z,2.08
2023-02-19T11:40:09.571Z,2.17
2023-02-19T11:43:01.095Z,2.00
2023-02-19T11:45:55.173Z,1.98
2023-02-19T11:48:55.994Z,2.10
2023-02-19T11:52:00.020Z,1.92
2023-02-19T11:54:52.688Z,2.10
2023-02-19T11:57:44.140Z,2.15
2023-02-19T12:00:31.142Z,1.92
2023-02-19T12:03:44.160Z,1.60
2023-02-19T12:06:37.117Z,1.60
2023-02-19T12:09:40.966Z,1.60
2023-02-19T12:12:39.630Z,3.10
2023-02-19T12:16:10.816Z,1.38
2023-02-19T12:19:15.047Z,1.50
2023-02-19T12:22:16.963Z,1.70
2023-02-19T12:25:25.636Z,1.50
2023-02-19T12:28:30.088Z,2.10
2023-02-19T12:31:45.165Z,1.70
2023-02-19T12:35:04.348Z,2.08
2023-02-19T12:37:58.958Z,2.53
2023-02-19T12:41:04.172Z,2.88
2023-02-19T12:43:54.496Z,2.67
2023-02-19T12:46:44.911Z,2.95
2023-02-19T12:49:34.831Z,2.85
2023-02-19T12:52:25.795Z,2.60
2023-02-19T12:55:21.265Z,2.95
2023-02-19T12:58:13.844Z,2.78
2023-02-19T13:01:00.259Z,3.92
2023-02-19T13:03:52.431Z,8.75
2023-02-19T13:06:43.385Z,3.83
2023-02-19T13:09:34.830Z,4.00
2023-02-19T13:12:24.482Z,3.45
2023-02-19T13:15:16.728Z,5.20
2023-02-19T13:18:05.533Z,5.60
2023-02-19T13:20:54.867Z,4.95
2023-02-19T13:24:03.136Z,3.83
2023-02-19T13:27:10.829Z,3.67
2023-02-19T13:30:22.700Z,3.58
2023-02-19T13:33:22.999Z,2.67
2023-02-19T13:36:15.655Z,2.17
2023-02-19T13:39:05.283Z,2.80
2023-02-19T13:41:55.945Z,2.60
2023-02-19T13:44:47.835Z,2.77
2023-02-19T13:47:49.018Z,3.65
2023-02-19T13:50:35.081Z,4.30
2023-02-19T13:53:53.863Z,4.22
2023-02-19T13:56:40.700Z,5.03
2023-02-19T13:59:36.192Z,3.80
2023-02-19T14:02:30.668Z,3.75
2023-02-19T14:05:54.868Z,3.53
2023-02-19T14:08:51.038Z,3.83
2023-02-19T14:12:02.522Z,3.53
2023-02-19T14:17:39.857Z,2.95
2023-02-19T14:23:29.009Z,3.10
2023-02-19T14:26:17.545Z,2.90
2023-02-19T14:29:06.669Z,2.08
2023-02-19T14:31:52.753Z,2.08
2023-02-19T14:34:39.351Z,2.70
2023-02-19T14:37:26.098Z,2.80
2023-02-19T14:40:19.817Z,2.80
2023-02-19T14:43:07.248Z,3.00
2023-02-19T14:45:56.997Z,3.17
2023-02-19T14:48:45.875Z,3.25
2023-02-19T14:51:34.982Z,2.45
2023-02-19T14:54:31.911Z,2.10
2023-02-19T14:57:21.475Z,2.20
2023-02-19T15:00:24.048Z,1.80
2023-02-19T15:03:28.968Z,1.40
2023-02-19T15:06:19.473Z,1.30
2023-02-19T15:09:07.286Z,1.67
2023-02-19T15:11:54.788Z,2.00
2023-02-19T15:14:40.659Z,2.13
2023-02-19T15:17:29.735Z,2.13
2023-02-19T15:20:18.800Z,2.15
2023-02-19T15:23:07.423Z,2.10
2023-02-19T15:25:53.599Z,1.95
2023-02-19T15:28:39.334Z,1.80
2023-02-19T15:31:25.005Z,1.70
2023-02-19T15:34:17.713Z,1.95
2023-02-19T15:37:06.339Z,2.33
2023-02-19T15:39:53.258Z,2.40
2023-02-19T15:42:39.443Z,2.67
2023-02-19T15:45:28.903Z,2.30
2023-02-19T15:48:16.728Z,2.45
2023-02-19T15:51:10.984Z,2.22
2023-02-19T15:54:04.182Z,2.40
2023-02-19T15:56:50.674Z,2.70
2023-02-19T15:59:40.166Z,2.63
2023-02-19T16:02:27.767Z,5.90
2023-02-19T16:05:17.964Z,3.88
2023-02-19T16:08:18.200Z,11.68
2023-02-19T16:11:05.861Z,4.95
2023-02-19T16:13:52.005Z,3.00
2023-02-19T16:16:40.630Z,2.70
2023-02-19T16:19:28.600Z,2.40
2023-02-19T16:22:19.126Z,4.25
2023-02-19T16:25:08.148Z,3.88
2023-02-19T16:27:54.306Z,2.88
2023-02-19T16:30:41.299Z,3.40
2023-02-19T16:33:39.181Z,4.80
2023-02-19T16:36:35.575Z,7.22
2023-02-19T16:39:23.245Z,3.33
2023-02-19T16:42:14.820Z,2.95
2023-02-19T16:47:51.072Z,3.92
2023-02-19T16:53:28.810Z,5.05
2023-02-19T16:56:18.486Z,3.28
2023-02-19T16:59:07.576Z,3.08
2023-02-19T17:01:53.434Z,3.17
2023-02-19T17:04:39.025Z,3.10
2023-02-19T17:07:26.047Z,3.22
2023-02-19T17:10:16.096Z,3.03
2023-02-19T17:13:01.875Z,3.15
2023-02-19T17:15:49.241Z,5.55
2023-02-19T17:18:34.987Z,5.38
2023-02-19T17:21:22.966Z,4.50
2023-02-19T17:24:08.689Z,5.40
2023-02-19T17:26:54.535Z,4.82
2023-02-19T17:29:40.696Z,4.47
2023-02-19T17:32:28.092Z,4.60
2023-02-19T17:35:14.192Z,4.80
2023-02-19T17:37:59.780Z,4.18
2023-02-19T17:40:45.743Z,4.32
2023-02-19T17:43:31.537Z,4.10
2023-02-19T17:46:17.763Z,4.15
2023-02-19T17:49:05.046Z,3.78
2023-02-19T17:51:51.224Z,4.40
2023-02-19T17:54:36.758Z,3.72
2023-02-19T17:57:22.675Z,3.53
2023-02-19T18:00:11.014Z,4.40
2023-02-19T18:02:59.770Z,3.42
2023-02-19T18:05:47.038Z,2.70
2023-02-19T18:08:32.854Z,2.92
2023-02-19T18:11:20.047Z,2.60
2023-02-19T18:14:05.712Z,2.40
2023-02-19T18:16:51.832Z,2.13
2023-02-19T18:19:37.750Z,2.28
2023-02-19T18:22:25.110Z,2.00
2023-02-19T18:25:11.628Z,2.40
2023-02-19T18:27:58.272Z,2.60
2023-02-19T18:30:45.072Z,2.30
2023-02-19T18:33:31.482Z,2.65
2023-02-19T18:36:17.125Z,1.73
2023-02-19T18:39:04.658Z,2.17
2023-02-19T18:41:51.739Z,2.15
2023-02-19T18:44:38.225Z,1.90
2023-02-19T18:47:27.660Z,4.75
2023-02-19T18:50:14.768Z,1.90
2023-02-19T18:53:01.038Z,2.80
2023-02-19T18:55:47.962Z,6.03
2023-02-19T18:58:33.558Z,3.65
2023-02-19T19:01:19.729Z,4.15
2023-02-19T19:04:05.773Z,3.63
2023-02-19T19:06:51.838Z,3.53
2023-02-19T19:09:37.751Z,3.22
2023-02-19T19:12:25.195Z,2.97
2023-02-19T19:15:11.506Z,3.30
2023-02-19T19:17:57.310Z,2.53
2023-02-19T19:20:43.232Z,2.53
2023-02-19T19:23:29.194Z,2.53
2023-02-19T19:26:15.948Z,3.00
2023-02-19T19:29:03.391Z,3.15
2023-02-19T19:31:50.342Z,2.88
2023-02-19T19:34:36.108Z,3.33
2023-02-19T19:37:22.185Z,2.85
2023-02-19T19:40:09.571Z,2.90
2023-02-19T19:42:55.599Z,4.00
2023-02-19T19:45:42.923Z,2.20
2023-02-19T19:48:28.638Z,2.03
2023-02-19T19:51:14.440Z,1.92
2023-02-19T19:54:01.967Z,1.88
2023-02-19T19:56:49.799Z,2.00
2023-02-19T19:59:36.982Z,2.10
2023-02-19T20:02:24.367Z,2.05
2023-02-19T20:05:10.270Z,3.33
2023-02-19T20:07:56.198Z,2.60
2023-02-19T20:10:43.934Z,2.50
2023-02-19T20:13:32.646Z,2.75
2023-02-19T20:16:24.580Z,3.08
2023-02-19T20:19:12.183Z,3.08
2023-02-19T20:21:57.725Z,4.20
2023-02-19T20:24:43.525Z,4.30
2023-02-19T20:27:29.486Z,5.13
2023-02-19T20:30:17.057Z,5.78
2023-02-19T20:33:02.955Z,5.97
2023-02-19T20:35:50.301Z,6.07
2023-02-19T20:38:36.093Z,5.85
2023-02-19T20:41:22.202Z,6.18
2023-02-19T20:44:08.089Z,5.95
2023-02-19T20:46:54.231Z,6.35
2023-02-19T20:49:44.702Z,6.00
2023-02-19T20:52:32.071Z,6.50
2023-02-19T20:55:18.115Z,5.65
2023-02-19T20:58:03.960Z,5.82
2023-02-19T21:00:49.933Z,5.93
2023-02-19T21:03:35.686Z,5.90
2023-02-19T21:06:22.302Z,6.03
2023-02-19T21:09:09.630Z,6.20
2023-02-19T21:11:55.205Z,6.35
2023-02-19T21:14:41.197Z,6.20
2023-02-19T21:17:27.064Z,5.85
2023-02-19T21:20:13.622Z,5.90
2023-02-19T21:22:59.126Z,5.45
2023-02-19T21:25:45.819Z,5.80
2023-02-19T21:28:31.481Z,6.10
2023-02-19T21:31:17.190Z,5.68
2023-02-19T21:34:04.525Z,5.72
2023-02-19T21:36:50.521Z,5.38
2023-02-19T21:39:36.481Z,8.07
2023-02-19T21:42:23.975Z,6.88
2023-02-19T21:45:10.178Z,6.07
2023-02-19T21:47:55.876Z,5.43
2023-02-19T21:50:45.571Z,6.00
2023-02-19T21:53:31.284Z,6.07
2023-02-19T21:56:22.220Z,6.70
2023-02-19T21:59:09.575Z,5.78
2023-02-19T22:01:57.095Z,4.85
2023-02-19T22:04:43.227Z,5.05
2023-02-19T22:07:30.483Z,4.93
2023-02-19T22:10:16.697Z,5.22
2023-02-19T22:13:02.223Z,5.30
2023-02-19T22:15:49.125Z,5.45
2023-02-19T22:18:35.174Z,5.35
2023-02-19T22:21:22.744Z,5.57
2023-02-19T22:24:16.402Z,5.68
2023-02-19T22:27:02.092Z,6.05
2023-02-19T22:29:49.338Z,6.07
2023-02-19T22:32:36.449Z,6.00
2023-02-19T22:35:22.374Z,6.20
2023-02-19T22:38:07.785Z,6.85
2023-02-19T22:40:53.936Z,6.70
2023-02-19T22:43:40.044Z,6.22
2023-02-19T22:46:27.861Z,5.95
2023-02-19T22:49:15.378Z,6.20
2023-02-19T22:52:03.804Z,6.43
2023-02-19T22:54:52.103Z,5.70
2023-02-19T22:57:37.774Z,6.00
2023-02-19T23:00:23.504Z,5.50
2023-02-19T23:03:09.373Z,5.60
2023-02-19T23:05:56.334Z,5.40
2023-02-19T23:08:42.860Z,5.75
2023-02-19T23:11:30.698Z,6.40
2023-02-19T23:14:17.395Z,5.57
2023-02-19T23:17:03.613Z,5.95
2023-02-19T23:19:49.285Z,6.45
2023-02-19T23:22:36.948Z,6.35
2023-02-19T23:25:22.547Z,6.78
2023-02-19T23:28:08.155Z,6.38
2023-02-19T23:30:53.963Z,6.78
2023-02-19T23:33:40.374Z,6.05
2023-02-19T23:36:26.225Z,6.18
2023-02-19T23:39:15.331Z,6.78
2023-02-19T23:42:01.115Z,7.38
2023-02-19T23:44:47.344Z,7.43
2023-02-19T23:47:33.167Z,7.55
2023-02-19T23:50:19.228Z,8.65
2023-02-19T23:53:05.014Z,8.10
2023-02-19T23:55:52.391Z,8.90
2023-02-19T23:58:38.162Z,8.57
